Time;durP1;ratioP1;P1;durP2;ratioP2;P2;SDS_P1;SDS_P2;PMS_P1;PMS_P2;Temp;Humidity;BMP_temperature;BMP_pressure;BME280_temperature;BME280_humidity;BME280_pressure;Samples;Min_cycle;Max_cycle;Signal;HPM_P1;HPM_P2
2022/06/04 00:01:54;;;;;;;;;;;;;;;22.08;63.11;101266.50;7405601;19;1417;-62
2022/06/04 00:04:23;;;;;;;;;;;;;;;22.05;63.20;101278.41;7406475;19;1339;-55
2022/06/04 00:06:54;;;;;;;;;;;;;;;22.02;63.39;101282.25;7404266;19;1903;-55
2022/06/04 00:09:23;;;;;;;;;;;;;;;22.02;63.08;101276.88;7406212;19;1587;-55
2022/06/04 00:17:14;;;;;;;;;;;;;;;22.05;62.87;101256.88;7408204;19;1444;-55
2022/06/04 00:19:42;;;;;;;;;;;;;;;22.08;62.83;101266.50;7406799;19;1461;-55
2022/06/04 00:22:14;;;;;;;;;;;;;;;22.07;62.99;101271.03;7407011;19;1137;-55
2022/06/04 00:24:43;;;;;;;;;;;;;;;22.06;62.81;101263.94;7405250;19;1765;-55
2022/06/04 00:27:15;;;;;;;;;;;;;;;22.03;62.81;101253.47;7404040;19;1856;-55
2022/06/04 00:29:43;;;;;;;;;;;;;;;22.02;62.96;101255.31;7405269;19;1581;-55
2022/06/04 00:32:12;;;;;;;;;;;;;;;22.07;63.21;101259.44;7406777;19;1533;-55
2022/06/04 00:34:40;;;;;;;;;;;;;;;22.01;62.82;101237.44;7406299;19;1386;-55
2022/06/04 00:37:09;;;;;;;;;;;;;;;22.02;62.75;101262.53;7406486;19;945;-55
2022/06/04 00:39:40;;;;;;;;;;;;;;;22.08;62.84;101253.88;7404171;19;1670;-55
2022/06/04 00:42:11;;;;;;;;;;;;;;;22.00;62.69;101238.47;7403126;19;1502;-55
2022/06/04 00:44:57;;;;;;;;;;;;;;;22.03;62.90;101258.84;7405686;19;1322;-55
2022/06/04 00:47:27;;;;;;;;;;;;;;;22.02;62.62;101243.69;7402922;19;1834;-55
2022/06/04 00:49:56;;;;;;;;;;;;;;;21.99;62.68;101246.69;7405905;19;1383;-55
2022/06/04 00:52:24;;;;;;;;;;;;;;;22.03;62.95;101253.47;7406881;19;1009;-55
2022/06/04 00:54:57;;;;;;;;;;;;;;;21.99;62.58;101235.91;7403702;19;1639;-55
2022/06/04 00:57:43;;;;;;;;;;;;;;;21.94;62.74;101243.56;7405633;19;1355;-55
2022/06/04 01:00:15;;;;;;;;;;;;;;;21.93;62.37;101245.41;7406466;19;1043;-55
2022/06/04 01:02:52;;;;;;;;;;;;;;;21.94;62.53;101248.94;7404080;19;1754;-55
2022/06/04 01:05:25;;;;;;;;;;;;;;;21.94;62.47;101254.31;7405558;19;1753;-55
2022/06/04 01:08:00;;;;;;;;;;;;;;;21.93;62.25;101237.31;7405081;19;1742;-55
2022/06/04 01:10:39;;;;;;;;;;;;;;;21.93;62.28;101231.09;7405207;19;1728;-55
2022/06/04 01:13:16;;;;;;;;;;;;;;;21.92;62.34;101250.91;7405180;19;1763;-55
2022/06/04 01:15:51;;;;;;;;;;;;;;;21.99;62.02;101263.69;7404690;19;1664;-55
2022/06/04 01:18:29;;;;;;;;;;;;;;;21.94;61.98;101257.00;7404824;19;1338;-55
2022/06/04 01:21:00;;;;;;;;;;;;;;;21.92;62.17;101251.75;7405253;19;1423;-56
2022/06/04 01:23:56;;;;;;;;;;;;;;;22.01;61.84;101260.84;7405713;19;979;-55
2022/06/04 01:26:41;;;;;;;;;;;;;;;21.93;62.09;101241.88;7404653;19;2175;-55
2022/06/04 01:29:16;;;;;;;;;;;;;;;21.91;61.79;101254.63;7401448;19;1431;-55
2022/06/04 01:31:46;;;;;;;;;;;;;;;21.93;62.07;101252.63;7404884;19;1579;-55
2022/06/04 01:34:17;;;;;;;;;;;;;;;21.89;61.88;101241.28;7404805;19;1553;-55
2022/06/04 01:36:49;;;;;;;;;;;;;;;21.94;61.60;101251.63;7405249;19;1411;-55
2022/06/04 01:39:20;;;;;;;;;;;;;;;21.89;61.95;101240.47;7402210;19;1750;-55
2022/06/04 01:41:48;;;;;;;;;;;;;;;21.90;61.75;101242.97;7404993;19;1536;-56
2022/06/04 01:44:22;;;;;;;;;;;;;;;21.85;61.66;101223.72;7403616;19;1489;-55
2022/06/04 01:46:52;;;;;;;;;;;;;;;21.84;61.71;101233.66;7403049;19;1857;-55
2022/06/04 01:49:22;;;;;;;;;;;;;;;21.84;61.68;101235.47;7403955;19;1297;-55
2022/06/04 01:51:52;;;;;;;;;;;;;;;21.84;61.30;101230.97;7405695;19;1019;-55
2022/06/04 01:54:24;;;;;;;;;;;;;;;21.82;61.46;101222.16;7408269;19;1738;-55
2022/06/04 01:56:55;;;;;;;;;;;;;;;21.78;61.59;101223.44;7412420;19;984;-56
2022/06/04 01:59:28;;;;;;;;;;;;;;;21.78;61.53;101231.50;7409926;19;1482;-55
2022/06/04 02:02:00;;;;;;;;;;;;;;;21.57;61.33;101190.47;7402624;19;1429;-55
2022/06/04 02:04:30;;;;;;;;;;;;;;;21.80;60.99;101215.22;7409315;19;1600;-55
2022/06/04 02:09:45;;;;;;;;;;;;;;;21.81;61.29;101214.25;7410736;19;1355;-55
2022/06/04 02:12:13;;;;;;;;;;;;;;;21.82;60.94;101227.53;7409914;19;1500;-55
2022/06/04 02:14:45;;;;;;;;;;;;;;;21.82;60.99;101235.63;7411808;19;1648;-55
2022/06/04 02:17:16;;;;;;;;;;;;;;;21.83;60.92;101214.94;7411555;19;1595;-55
2022/06/04 02:19:45;;;;;;;;;;;;;;;21.80;61.10;101216.06;7411170;19;1528;-55
2022/06/04 02:22:13;;;;;;;;;;;;;;;21.83;60.92;101226.56;7411037;19;1072;-55
2022/06/04 02:24:43;;;;;;;;;;;;;;;21.81;61.12;101225.00;7409818;19;1501;-56
2022/06/04 02:27:12;;;;;;;;;;;;;;;21.78;60.91;101217.22;7407371;19;1867;-55
2022/06/04 02:29:44;;;;;;;;;;;;;;;21.79;61.44;101222.47;7408197;19;1363;-56
2022/06/04 02:32:17;;;;;;;;;;;;;;;21.77;61.36;101220.91;7410912;19;1462;-55
2022/06/04 02:34:54;;;;;;;;;;;;;;;21.78;61.37;101222.59;7409893;19;1325;-55
2022/06/04 02:37:25;;;;;;;;;;;;;;;21.80;61.35;101226.00;7408630;19;1554;-55
2022/06/04 02:39:58;;;;;;;;;;;;;;;21.80;61.63;101240.28;7409735;19;1297;-55
2022/06/04 02:42:29;;;;;;;;;;;;;;;21.79;61.22;101233.22;7408515;19;1330;-55
2022/06/04 02:45:02;;;;;;;;;;;;;;;21.77;61.31;101243.28;7408760;19;1490;-56
2022/06/04 02:47:34;;;;;;;;;;;;;;;21.75;61.27;101247.97;7406328;19;1849;-55
2022/06/04 02:50:04;;;;;;;;;;;;;;;21.75;61.37;101244.44;7408278;19;1644;-55
2022/06/04 02:52:34;;;;;;;;;;;;;;;21.75;61.19;101244.44;7411226;19;941;-55
2022/06/04 02:55:07;;;;;;;;;;;;;;;21.78;61.21;101261.13;7408591;19;1538;-55
2022/06/04 02:57:39;;;;;;;;;;;;;;;21.73;61.21;101249.94;7407568;19;1381;-55
2022/06/04 03:00:12;;;;;;;;;;;;;;;21.75;61.01;101250.66;7409885;19;1640;-55
2022/06/04 03:02:40;;;;;;;;;;;;;;;21.73;61.12;101247.25;7407266;19;1602;-55
2022/06/04 03:05:10;;;;;;;;;;;;;;;21.74;61.31;101254.31;7407597;19;1700;-55
2022/06/04 03:07:40;;;;;;;;;;;;;;;21.73;61.11;101257.19;7408067;19;1846;-55
2022/06/04 03:10:12;;;;;;;;;;;;;;;21.73;60.75;101255.34;7409236;19;1516;-55
2022/06/04 03:12:41;;;;;;;;;;;;;;;21.68;60.80;101257.59;7408475;19;1379;-55
2022/06/04 03:15:12;;;;;;;;;;;;;;;21.70;61.02;101263.69;7408836;19;1536;-55
2022/06/04 03:17:41;;;;;;;;;;;;;;;21.71;60.92;101264.56;7407849;19;1536;-55
2022/06/04 03:20:11;;;;;;;;;;;;;;;21.67;60.74;101263.97;7408426;19;1581;-55
2022/06/04 03:22:40;;;;;;;;;;;;;;;21.75;60.76;101271.34;7409697;19;1346;-55
2022/06/04 03:25:08;;;;;;;;;;;;;;;21.74;60.84;101278.56;7407577;19;1672;-55
2022/06/04 03:27:37;;;;;;;;;;;;;;;21.72;60.83;101266.22;7406097;19;1889;-55
2022/06/04 03:30:05;;;;;;;;;;;;;;;21.70;60.63;101258.28;7408106;19;1594;-55
2022/06/04 03:32:36;;;;;;;;;;;;;;;21.70;60.73;101277.13;7407685;19;1616;-55
2022/06/04 03:35:05;;;;;;;;;;;;;;;21.73;60.77;101279.56;7407363;19;1496;-55
2022/06/04 03:37:34;;;;;;;;;;;;;;;21.78;60.75;101277.28;7409404;19;1437;-55
2022/06/04 03:40:02;;;;;;;;;;;;;;;21.74;60.72;101265.09;7406941;19;1707;-56
2022/06/04 03:42:31;;;;;;;;;;;;;;;21.77;60.44;101277.44;7407770;19;1501;-56
2022/06/04 03:44:59;;;;;;;;;;;;;;;21.79;60.90;101279.00;7406934;19;1647;-55
2022/06/04 03:47:28;;;;;;;;;;;;;;;21.78;60.63;101263.81;7405722;19;1839;-55
2022/06/04 03:49:59;;;;;;;;;;;;;;;21.82;60.73;101277.84;7407983;19;1327;-55
2022/06/04 03:52:27;;;;;;;;;;;;;;;21.82;60.87;101302.91;7408478;19;1292;-55
2022/06/04 03:54:57;;;;;;;;;;;;;;;21.80;61.03;101282.53;7406644;19;1644;-55
2022/06/04 03:57:45;;;;;;;;;;;;;;;21.80;60.95;101286.06;7407528;19;1012;-55
2022/06/04 04:00:16;;;;;;;;;;;;;;;21.83;61.27;101280.41;7408409;19;973;-55
2022/06/04 04:02:45;;;;;;;;;;;;;;;21.86;60.88;101290.03;7405975;19;1734;-55
2022/06/04 04:05:17;;;;;;;;;;;;;;;21.84;61.04;101283.94;7407671;19;1667;-55
2022/06/04 04:07:45;;;;;;;;;;;;;;;21.90;61.20;101310.28;7406622;19;1850;-55
2022/06/04 04:10:14;;;;;;;;;;;;;;;21.88;61.30;101285.34;7407834;19;1496;-55
2022/06/04 04:12:43;;;;;;;;;;;;;;;21.91;61.27;101295.00;7407313;19;1568;-55
2022/06/04 04:15:13;;;;;;;;;;;;;;;21.92;61.37;101294.00;7406277;19;1545;-55
2022/06/04 04:17:41;;;;;;;;;;;;;;;21.91;61.15;101286.94;7405863;19;1611;-55
2022/06/04 04:20:11;;;;;;;;;;;;;;;21.99;61.32;101290.59;7405501;19;1547;-55
2022/06/04 04:22:43;;;;;;;;;;;;;;;21.98;61.44;101290.75;7408392;19;1407;-55
2022/06/04 04:25:12;;;;;;;;;;;;;;;21.96;61.59;101290.03;7405749;19;1648;-55
2022/06/04 04:27:40;;;;;;;;;;;;;;;22.01;61.52;101285.09;7405142;19;1857;-55
2022/06/04 04:30:10;;;;;;;;;;;;;;;22.01;61.31;101285.94;7405737;19;1614;-54
2022/06/04 04:32:39;;;;;;;;;;;;;;;22.02;61.67;101284.06;7405372;19;1533;-55
2022/06/04 04:35:09;;;;;;;;;;;;;;;22.04;61.43;101282.09;7405161;19;1571;-55
2022/06/04 04:37:37;;;;;;;;;;;;;;;22.01;61.88;101287.78;7407868;19;1024;-55
2022/06/04 04:40:09;;;;;;;;;;;;;;;22.05;61.68;101298.13;7405531;19;1716;-55
2022/06/04 04:42:37;;;;;;;;;;;;;;;22.11;61.54;101302.09;7405629;19;1907;-55
2022/06/04 04:45:07;;;;;;;;;;;;;;;22.10;61.75;101292.28;7405448;19;1328;-55
2022/06/04 04:47:35;;;;;;;;;;;;;;;22.13;61.54;101288.47;7404565;19;1881;-55
2022/06/04 04:50:04;;;;;;;;;;;;;;;22.14;61.67;101304.47;7403847;19;1843;-55
2022/06/04 04:52:33;;;;;;;;;;;;;;;22.16;61.49;101294.44;7406661;19;1047;-55
2022/06/04 04:55:01;;;;;;;;;;;;;;;22.18;61.94;101308.59;7404445;19;1680;-55
2022/06/04 04:57:32;;;;;;;;;;;;;;;22.19;61.60;101295.97;7405829;19;1402;-54
2022/06/04 05:00:00;;;;;;;;;;;;;;;22.23;61.40;101292.84;7406104;19;1672;-55
2022/06/04 05:02:29;;;;;;;;;;;;;;;22.28;61.69;101315.84;7404109;19;1489;-55
2022/06/04 05:04:57;;;;;;;;;;;;;;;22.29;61.37;101296.00;7406060;19;1517;-55
2022/06/04 05:07:25;;;;;;;;;;;;;;;22.32;61.53;101284.91;7405402;19;1861;-62
2022/06/04 05:09:54;;;;;;;;;;;;;;;22.31;61.53;101291.31;7404891;19;1926;-62
2022/06/04 05:12:25;;;;;;;;;;;;;;;22.33;61.63;101292.88;7402573;19;1542;-61
2022/06/04 05:14:56;;;;;;;;;;;;;;;22.35;61.33;101300.81;7403790;19;1379;-61
2022/06/04 05:17:25;;;;;;;;;;;;;;;22.40;61.59;101301.22;7401927;19;1341;-61
2022/06/04 05:19:53;;;;;;;;;;;;;;;;;;7405483;19;1363;-61
2022/06/04 05:22:21;;;;;;;;;;;;;;;22.25;62.39;101303.53;7405479;19;980;-61
2022/06/04 05:24:49;;;;;;;;;;;;;;;22.17;62.69;101288.03;7403273;19;1745;-61
2022/06/04 05:27:18;;;;;;;;;;;;;;;22.22;62.41;101291.16;7405740;19;1851;-61
2022/06/04 05:29:46;;;;;;;;;;;;;;;22.41;62.08;101298.38;7417060;19;1359;-61
2022/06/04 05:32:17;;;;;;;;;;;;;;;22.50;61.80;101291.28;7418445;19;1319;-62
2022/06/04 05:34:45;;;;;;;;;;;;;;;22.56;61.51;101277.22;7418365;19;1335;-61
2022/06/04 05:37:14;;;;;;;;;;;;;;;22.63;61.30;101270.22;7419219;19;1799;-60
2022/06/04 05:39:42;;;;;;;;;;;;;;;22.67;61.62;101264.56;7416628;19;1739;-62
2022/06/04 05:42:11;;;;;;;;;;;;;;;22.70;61.73;101258.84;7418564;19;1296;-63
2022/06/04 05:44:40;;;;;;;;;;;;;;;22.85;61.99;101262.75;7418442;19;1396;-60
2022/06/04 05:47:09;;;;;;;;;;;;;;;22.91;61.72;101264.84;7416179;19;1860;-65
2022/06/04 05:49:40;;;;;;;;;;;;;;;22.95;62.06;101271.66;7419034;19;1462;-70
2022/06/04 05:52:08;;;;;;;;;;;;;;;22.95;62.61;101268.97;7419851;19;1292;-64
2022/06/04 05:54:37;;;;;;;;;;;;;;;23.09;62.76;101266.81;7416161;19;1719;-61
2022/06/04 05:57:06;;;;;;;;;;;;;;;22.99;62.68;101259.56;7416521;19;1225;-61
2022/06/04 05:59:34;;;;;;;;;;;;;;;22.93;63.02;101262.03;7417941;19;1287;-63
2022/06/04 06:02:03;;;;;;;;;;;;;;;23.11;62.90;101270.19;7415766;19;1508;-63
2022/06/04 06:04:31;;;;;;;;;;;;;;;22.58;62.78;101215.94;7417438;19;1563;-63
2022/06/04 06:07:02;;;;;;;;;;;;;;;22.99;63.55;101283.84;7416841;19;1157;-59
2022/06/04 06:09:32;;;;;;;;;;;;;;;23.06;63.72;101296.75;7414244;19;1843;-58
2022/06/04 06:12:00;;;;;;;;;;;;;;;23.06;63.71;101286.84;7417885;19;1440;-61
2022/06/04 06:14:29;;;;;;;;;;;;;;;23.03;64.24;101284.44;7416757;19;1342;-61
2022/06/04 06:16:58;;;;;;;;;;;;;;;22.97;63.83;101274.22;7417171;19;1230;-57
2022/06/04 06:19:27;;;;;;;;;;;;;;;23.00;63.71;101277.47;7415353;19;1357;-57
2022/06/04 06:21:55;;;;;;;;;;;;;;;23.06;63.40;101284.16;7417957;19;1460;-57
2022/06/04 06:24:26;;;;;;;;;;;;;;;23.06;63.67;101272.47;7415089;19;1655;-57
2022/06/04 06:26:55;;;;;;;;;;;;;;;23.00;63.75;101280.16;7417428;19;1318;-57
2022/06/04 06:29:26;;;;;;;;;;;;;;;23.10;63.64;101274.75;7415449;19;1877;-56
2022/06/04 06:31:54;;;;;;;;;;;;;;;23.12;63.59;101288.06;7415060;19;1526;-56
2022/06/04 06:34:23;;;;;;;;;;;;;;;22.66;65.18;101292.50;7407648;19;1094;-56
2022/06/04 06:36:52;;;;;;;;;;;;;;;22.20;65.78;101297.66;7413768;19;1059;-56
2022/06/04 06:39:20;;;;;;;;;;;;;;;22.66;65.18;101296.06;7407724;19;1403;-55
2022/06/04 06:41:51;;;;;;;;;;;;;;;22.74;64.79;101292.59;7410435;19;1513;-56
2022/06/04 06:44:21;;;;;;;;;;;;;;;22.83;64.42;101284.47;7407735;19;1540;-56
2022/06/04 06:46:50;;;;;;;;;;;;;;;22.86;64.39;101277.09;7408928;19;1768;-56
2022/06/04 06:49:20;;;;;;;;;;;;;;;22.90;64.09;101284.75;7408062;19;1855;-56
2022/06/04 06:51:50;;;;;;;;;;;;;;;22.90;64.24;101289.28;7411245;19;1013;-56
2022/06/04 06:54:19;;;;;;;;;;;;;;;22.94;63.93;101290.69;7407064;19;1874;-56
2022/06/04 06:56:48;;;;;;;;;;;;;;;22.90;64.36;101290.16;7410426;19;1191;-56
2022/06/04 06:59:20;;;;;;;;;;;;;;;22.87;64.12;101266.16;7408538;19;1588;-56
2022/06/04 07:01:49;;;;;;;;;;;;;;;22.90;64.23;101265.88;7407332;19;1469;-56
2022/06/04 07:04:18;;;;;;;;;;;;;;;22.90;64.16;101267.69;7408439;19;1618;-56
2022/06/04 07:06:47;;;;;;;;;;;;;;;22.92;64.20;101263.00;7408496;19;1541;-56
2022/06/04 07:09:17;;;;;;;;;;;;;;;22.91;64.21;101254.06;7407556;19;1853;-56
2022/06/04 07:11:45;;;;;;;;;;;;;;;22.93;64.05;101259.31;7409359;19;1375;-56
2022/06/04 07:14:14;;;;;;;;;;;;;;;22.98;64.10;101268.66;7408765;19;1892;-56
2022/06/04 07:16:45;;;;;;;;;;;;;;;22.95;64.27;101247.38;7409697;19;1556;-56
2022/06/04 07:19:14;;;;;;;;;;;;;;;22.91;64.20;101235.19;7409131;19;1569;-56
2022/06/04 07:21:43;;;;;;;;;;;;;;;22.95;64.00;101244.69;7410182;19;960;-56
2022/06/04 07:24:12;;;;;;;;;;;;;;;22.95;63.91;101243.84;7405704;19;1494;-56
2022/06/04 07:26:41;;;;;;;;;;;;;;;22.93;64.33;101252.06;7408505;19;1611;-56
2022/06/04 07:29:10;;;;;;;;;;;;;;;22.96;64.04;101235.59;7406412;19;1841;-56
2022/06/04 07:31:38;;;;;;;;;;;;;;;22.92;64.24;101233.34;7408799;19;1623;-56
2022/06/04 07:34:10;;;;;;;;;;;;;;;22.93;64.20;101225.09;7409321;19;980;-56
2022/06/04 07:36:39;;;;;;;;;;;;;;;22.95;64.07;101231.19;7409739;19;941;-56
2022/06/04 07:39:09;;;;;;;;;;;;;;;22.93;64.28;101224.25;7405644;19;1750;-56
2022/06/04 07:41:38;;;;;;;;;;;;;;;22.96;64.05;101219.44;7408039;19;1461;-56
2022/06/04 07:44:07;;;;;;;;;;;;;;;22.95;64.28;101241.16;7408436;19;1442;-56
2022/06/04 07:46:36;;;;;;;;;;;;;;;22.96;64.27;101224.81;7408183;19;1564;-56
2022/06/04 07:49:05;;;;;;;;;;;;;;;23.02;64.15;101228.81;7408191;19;1866;-56
2022/06/04 07:51:36;;;;;;;;;;;;;;;22.96;63.96;101222.13;7407478;19;1770;-56
2022/06/04 07:54:05;;;;;;;;;;;;;;;22.98;63.67;101221.97;7404633;19;1651;-56
2022/06/04 07:56:33;;;;;;;;;;;;;;;22.98;63.85;101219.28;7408408;19;954;-56
2022/06/04 07:59:02;;;;;;;;;;;;;;;23.03;63.92;101227.78;7405730;19;1743;-56
2022/06/04 08:01:30;;;;;;;;;;;;;;;22.98;63.91;101214.72;7405657;19;1548;-56
2022/06/04 08:03:58;;;;;;;;;;;;;;;22.96;64.26;101224.81;7405878;19;1767;-56
2022/06/04 08:06:27;;;;;;;;;;;;;;;23.00;64.02;101219.97;7407255;19;1355;-56
2022/06/04 08:08:58;;;;;;;;;;;;;;;22.97;64.29;101226.50;7406261;19;1845;-56
2022/06/04 08:11:35;;;;;;;;;;;;;;;22.96;64.24;101215.84;7408154;19;1551;-56
2022/06/04 08:14:08;;;;;;;;;;;;;;;22.94;64.49;101229.50;7407644;19;1356;-56
2022/06/04 08:16:36;;;;;;;;;;;;;;;23.00;64.46;101222.69;7407195;19;1536;-56
2022/06/04 08:19:04;;;;;;;;;;;;;;;22.99;64.35;101226.34;7408409;19;1011;-56
2022/06/04 08:21:33;;;;;;;;;;;;;;;22.98;64.26;101219.28;7407554;19;1778;-56
2022/06/04 08:24:05;;;;;;;;;;;;;;;22.98;64.52;101219.28;7403709;19;1757;-56
2022/06/04 08:26:33;;;;;;;;;;;;;;;22.99;64.42;101218.28;7406707;19;1525;-56
2022/06/04 08:29:02;;;;;;;;;;;;;;;22.95;64.18;101208.78;7406121;19;1845;-56
2022/06/04 08:31:30;;;;;;;;;;;;;;;22.95;64.22;101196.13;7407949;19;957;-56
2022/06/04 08:33:58;;;;;;;;;;;;;;;22.96;64.13;101202.38;7407304;19;1237;-56
2022/06/04 08:36:26;;;;;;;;;;;;;;;22.96;64.44;101197.84;7406978;19;1659;-56
2022/06/04 08:38:55;;;;;;;;;;;;;;;22.99;64.34;101212.88;7403058;19;1695;-56
2022/06/04 08:41:36;;;;;;;;;;;;;;;22.97;64.32;101196.84;7406470;19;1576;-56
2022/06/04 08:44:07;;;;;;;;;;;;;;;22.96;64.27;101195.16;7406568;19;1623;-56
2022/06/04 08:46:37;;;;;;;;;;;;;;;22.97;64.33;101196.84;7406224;19;1503;-56
2022/06/04 08:49:08;;;;;;;;;;;;;;;22.99;64.20;101199.38;7406517;19;1855;-56
2022/06/04 08:51:36;;;;;;;;;;;;;;;23.02;64.00;101199.13;7406212;19;1471;-56
2022/06/04 08:57:32;;;;;;;;;;;;;;;22.99;64.20;101213.72;7402746;19;1639;-56
2022/06/04 08:59:43;;;;;;;;;;;;;;;23.01;63.83;101192.00;7405599;19;1655;-56
2022/06/04 09:02:14;;;;;;;;;;;;;;;23.02;63.86;101196.44;7402311;19;1557;-56
2022/06/04 09:04:47;;;;;;;;;;;;;;;23.00;64.07;101193.84;7405382;19;1544;-56
2022/06/04 09:07:18;;;;;;;;;;;;;;;23.01;64.39;101192.00;7404815;19;1356;-56
2022/06/04 09:09:48;;;;;;;;;;;;;;;22.98;64.58;101174.28;7403798;19;1859;-56
2022/06/04 09:12:28;;;;;;;;;;;;;;;22.98;64.39;101170.72;7403927;19;1344;-56
2022/06/04 09:15:00;;;;;;;;;;;;;;;22.98;64.54;101178.81;7404189;19;1630;-56
2022/06/04 09:17:35;;;;;;;;;;;;;;;22.97;64.48;101172.56;7403478;19;1368;-56
2022/06/04 09:20:04;;;;;;;;;;;;;;;22.98;64.25;101184.22;7403635;19;1541;-56
2022/06/04 09:22:36;;;;;;;;;;;;;;;22.96;64.72;101181.66;7405949;19;1059;-56
2022/06/04 09:25:04;;;;;;;;;;;;;;;22.96;64.47;101178.97;7403490;19;1486;-56
2022/06/04 09:27:40;;;;;;;;;;;;;;;22.99;64.50;101177.81;7404768;19;1630;-56
2022/06/04 09:30:15;;;;;;;;;;;;;;;22.96;64.57;101173.56;7402504;19;1848;-56
2022/06/04 09:32:48;;;;;;;;;;;;;;;22.82;65.93;101158.75;7403714;19;1846;-56
2022/06/04 09:35:18;;;;;;;;;;;;;;;22.14;66.12;101172.50;7397230;19;1351;-56
2022/06/04 09:37:47;;;;;;;;;;;;;;;21.33;65.73;101159.41;7402488;19;1465;-56
2022/06/04 09:40:20;;;;;;;;;;;;;;;20.99;64.77;101177.75;7403224;19;1664;-57
2022/06/04 09:42:51;;;;;;;;;;;;;;;20.84;64.40;101169.25;7402044;19;1399;-57
2022/06/04 09:45:22;;;;;;;;;;;;;;;20.50;64.48;101150.72;7401615;19;1278;-59
2022/06/04 09:47:52;;;;;;;;;;;;;;;20.41;63.78;101156.91;7399882;19;1350;-58
2022/06/04 09:50:23;;;;;;;;;;;;;;;20.11;63.20;101147.88;7395405;19;1907;-57
2022/06/04 09:52:59;;;;;;;;;;;;;;;19.97;62.03;101154.44;7401007;19;1184;-57
2022/06/04 09:55:28;;;;;;;;;;;;;;;19.70;61.46;101124.59;7398681;19;1565;-57
2022/06/04 09:58:01;;;;;;;;;;;;;;;19.65;61.29;101154.47;7400998;19;1436;-59
2022/06/04 10:00:30;;;;;;;;;;;;;;;19.57;60.26;101151.59;7392109;19;1392;-56
2022/06/04 10:03:00;;;;;;;;;;;;;;;19.41;60.29;101146.69;6875228;19;10000377;-56
2022/06/04 10:05:30;;;;;;;;;;;;;;;19.34;59.58;101143.66;7387477;19;1707;-56
2022/06/04 10:07:59;;;;;;;;;;;;;;;19.21;59.54;101146.50;7387280;19;1270;-56
2022/06/04 10:10:31;;;;;;;;;;;;;;;19.10;58.78;101148.38;7385633;19;1844;-56
2022/06/04 10:15:53;;;;;;;;;;;;;;;18.69;58.54;101130.19;7395459;19;1260;-60
2022/06/04 10:18:27;;;;;;;;;;;;;;;18.67;58.79;101132.13;7395553;19;1334;-60
2022/06/04 10:20:56;;;;;;;;;;;;;;;18.72;58.38;101123.75;7399202;19;1424;-56
2022/06/04 10:23:25;;;;;;;;;;;;;;;18.79;58.52;101130.31;7402693;19;1324;-56
2022/06/04 10:26:01;;;;;;;;;;;;;;;18.76;58.66;101118.97;7403824;19;1470;-56
2022/06/04 10:28:41;;;;;;;;;;;;;;;18.72;58.24;101133.56;7403812;19;1420;-56
2022/06/04 10:31:15;;;;;;;;;;;;;;;18.86;59.70;101114.56;7403977;19;1611;-56
2022/06/04 10:33:50;;;;;;;;;;;;;;;19.07;60.00;101104.75;7403741;19;1349;-56
2022/06/04 10:36:32;;;;;;;;;;;;;;;19.29;60.52;101111.00;7404010;19;1739;-56
2022/06/04 10:39:05;;;;;;;;;;;;;;;19.51;60.99;101103.84;7402914;19;1152;-56
2022/06/04 10:41:39;;;;;;;;;;;;;;;19.53;61.41;101118.81;7404097;19;1755;-56
2022/06/04 10:44:23;;;;;;;;;;;;;;;19.03;62.15;101035.47;7402086;19;1390;-56
2022/06/04 10:46:58;;;;;;;;;;;;;;;19.79;61.32;101103.19;7399957;19;1326;-55
2022/06/04 10:49:37;;;;;;;;;;;;;;;19.80;62.13;101101.38;7402286;19;1849;-56
2022/06/04 10:52:09;;;;;;;;;;;;;;;20.02;63.41;101095.00;7403826;19;1334;-56
2022/06/04 10:54:40;;;;;;;;;;;;;;;20.25;64.13;101090.25;7403372;19;1427;-56
2022/06/04 10:57:16;;;;;;;;;;;;;;;20.54;65.06;101087.69;7402436;19;1299;-56
2022/06/04 10:59:49;;;;;;;;;;;;;;;20.75;66.37;101094.81;7405286;19;1339;-56
2022/06/04 11:02:24;;;;;;;;;;;;;;;20.82;67.02;101086.06;7399016;19;1466;-56
2022/06/04 11:04:56;;;;;;;;;;;;;;;20.90;67.99;101068.38;7403525;19;1343;-56
2022/06/04 11:07:37;;;;;;;;;;;;;;;20.96;68.14;101060.59;7398132;19;1380;-56
2022/06/04 11:10:07;;;;;;;;;;;;;;;21.00;68.58;101064.69;7391629;19;1852;-56
2022/06/04 11:12:41;;;;;;;;;;;;;;;21.12;68.44;101075.31;7402278;19;1228;-57
2022/06/04 11:15:14;;;;;;;;;;;;;;;21.26;68.36;101058.75;7401250;19;1479;-56
2022/06/04 11:17:49;;;;;;;;;;;;;;;21.50;67.70;101057.47;7401633;19;1358;-56
2022/06/04 11:20:20;;;;;;;;;;;;;;;21.59;67.32;101065.53;7402319;19;1521;-56
2022/06/04 11:22:53;;;;;;;;;;;;;;;21.40;67.64;101050.22;7403380;19;1346;-56
2022/06/04 11:25:27;;;;;;;;;;;;;;;21.63;67.99;101052.63;7401421;19;1529;-57
2022/06/04 11:27:57;;;;;;;;;;;;;;;21.87;67.15;101032.44;7402048;19;1310;-59
2022/06/04 11:30:31;;;;;;;;;;;;;;;22.02;66.23;101037.19;7401445;19;1844;-61
2022/06/04 11:33:05;;;;;;;;;;;;;;;22.19;65.48;101032.00;7400567;19;1373;-60
2022/06/04 11:35:41;;;;;;;;;;;;;;;22.23;64.94;101036.91;7401609;19;1331;-60
2022/06/04 11:38:19;;;;;;;;;;;;;;;22.36;65.01;101039.31;7402855;19;1324;-60
2022/06/04 11:40:52;;;;;;;;;;;;;;;22.45;64.68;101037.53;7401350;19;1508;-60
2022/06/04 11:43:28;;;;;;;;;;;;;;;22.51;64.69;101039.63;7401743;19;1632;-60
2022/06/04 11:46:12;;;;;;;;;;;;;;;22.56;64.94;101040.03;7407319;19;1476;-59
2022/06/04 11:48:56;;;;;;;;;;;;;;;22.61;64.43;101029.63;7401936;19;1565;-60
2022/06/04 11:51:30;;;;;;;;;;;;;;;22.65;65.04;101027.47;7408158;19;1448;-58
2022/06/04 11:54:01;;;;;;;;;;;;;;;22.67;64.99;101011.16;7406148;19;1498;-58
2022/06/04 11:56:36;;;;;;;;;;;;;;;22.69;64.97;101019.94;7407346;19;1251;-56
2022/06/04 11:59:20;;;;;;;;;;;;;;;22.62;64.96;101016.97;7407142;19;1372;-56
2022/06/04 12:01:51;;;;;;;;;;;;;;;22.58;65.03;101015.59;7405436;19;1507;-56
2022/06/04 12:04:26;;;;;;;;;;;;;;;22.57;64.84;101014.75;7407329;19;1514;-56
2022/06/04 12:06:56;;;;;;;;;;;;;;;22.53;65.12;101017.91;7405013;19;1396;-56
2022/06/04 12:09:28;;;;;;;;;;;;;;;22.56;64.85;101007.69;7406319;19;1863;-56
2022/06/04 12:11:59;;;;;;;;;;;;;;;22.58;64.49;101013.78;7405704;19;1332;-56
2022/06/04 12:14:32;;;;;;;;;;;;;;;22.60;64.55;101002.81;7406165;19;1417;-56
2022/06/04 12:17:11;;;;;;;;;;;;;;;22.61;64.70;100999.13;7405735;19;1300;-57
2022/06/04 12:25:07;;;;;;;;;;;;;;;22.73;64.93;100991.66;7406895;19;1426;-58
2022/06/04 12:27:38;;;;;;;;;;;;;;;22.82;64.84;100994.28;7405990;19;1469;-60
2022/06/04 12:30:17;;;;;;;;;;;;;;;22.80;64.66;100993.59;7404652;19;1854;-57
2022/06/04 12:32:46;;;;;;;;;;;;;;;22.83;64.41;100995.94;7406574;19;1454;-57
2022/06/04 12:35:24;;;;;;;;;;;;;;;22.87;64.49;100993.81;7406228;19;1358;-65
2022/06/04 12:37:56;;;;;;;;;;;;;;;22.94;65.62;100978.69;7403567;19;1412;-58
2022/06/04 12:40:33;;;;;;;;;;;;;;;23.02;65.04;100980.66;7402870;19;1522;-59
2022/06/04 12:43:04;;;;;;;;;;;;;;;23.11;65.65;100989.63;7405046;19;1270;-57
2022/06/04 12:45:38;;;;;;;;;;;;;;;23.02;65.43;100978.78;7404468;19;1291;-57
2022/06/04 12:48:22;;;;;;;;;;;;;;;22.87;65.17;100984.88;7404254;19;1394;-58
2022/06/04 12:50:59;;;;;;;;;;;;;;;22.86;65.34;100981.34;7403645;19;1860;-57
2022/06/04 12:53:30;;;;;;;;;;;;;;;22.89;65.02;100970.22;7405938;19;1300;-57
2022/06/04 12:56:00;;;;;;;;;;;;;;;22.86;65.31;100984.03;7406319;19;1362;-60
2022/06/04 12:58:32;;;;;;;;;;;;;;;22.86;65.62;100969.69;7402140;19;1636;-61
2022/06/04 13:01:01;;;;;;;;;;;;;;;22.97;65.92;100972.97;7404634;19;1413;-59
2022/06/04 13:03:32;;;;;;;;;;;;;;;22.99;65.98;100960.19;7404923;19;1446;-59
2022/06/04 13:06:15;;;;;;;;;;;;;;;22.91;65.72;100957.44;7405251;19;1306;-59
2022/06/04 13:08:48;;;;;;;;;;;;;;;22.94;65.60;100953.56;7403970;19;1465;-60
2022/06/04 13:11:22;;;;;;;;;;;;;;;22.93;65.52;100950.03;7404043;19;1857;-60
2022/06/04 13:13:57;;;;;;;;;;;;;;;22.92;65.42;100952.88;7405544;19;1356;-60
2022/06/04 13:16:27;;;;;;;;;;;;;;;22.93;66.19;100963.50;7405600;19;1295;-59
2022/06/04 13:19:04;;;;;;;;;;;;;;;22.85;66.60;100947.28;7404747;19;1667;-60
2022/06/04 13:21:33;;;;;;;;;;;;;;;22.91;66.48;100957.44;7405732;19;1671;-58
2022/06/04 13:24:06;;;;;;;;;;;;;;;22.93;66.63;100946.50;7403770;19;1618;-60
2022/06/04 13:26:39;;;;;;;;;;;;;;;22.89;65.98;100945.94;7404176;19;1306;-60
2022/06/04 13:29:22;;;;;;;;;;;;;;;22.91;66.55;100935.84;7404999;19;1410;-59